Time;durP1;ratioP1;P1;durP2;ratioP2;P2;SDS_P1;SDS_P2;PMS_P1;PMS_P2;Temp;Humidity;BMP_temperature;BMP_pressure;BME280_temperature;BME280_humidity;BME280_pressure;Samples;Min_cycle;Max_cycle;Signal;HPM_P1;HPM_P2
2023/07/30 00:03:19;;;;;;;6.65;6.03;;;;;;;26.48;52.16;100576.41;21088844;28;20075;-70
2023/07/30 00:13:20;;;;;;;6.60;5.68;;;;;;;26.47;52.13;100549.53;21088611;28;20039;-70
2023/07/30 00:23:36;;;;;;;6.18;5.57;;;;;;;26.32;51.85;100542.38;21087501;28;20036;-70
2023/07/30 00:33:37;;;;;;;6.63;5.78;;;;;;;26.43;51.76;100570.94;21085782;28;20044;-70
2023/07/30 00:43:39;;;;;;;5.97;5.38;;;;;;;26.42;51.90;100614.19;21085797;28;20063;-69
2023/07/30 00:53:40;;;;;;;6.45;5.40;;;;;;;26.29;52.14;100616.78;21082691;28;20044;-70
2023/07/30 01:03:41;;;;;;;5.90;5.30;;;;;;;26.41;51.92;100671.44;21085213;28;20105;-68
2023/07/30 01:13:49;;;;;;;5.43;4.82;;;;;;;26.28;51.81;100676.00;21083761;28;20098;-71
2023/07/30 01:23:54;;;;;;;5.25;4.70;;;;;;;26.36;52.05;100700.47;21083331;28;20036;-70
2023/07/30 01:33:56;;;;;;;4.72;4.32;;;;;;;26.24;51.90;100692.66;21082630;28;20090;-69
2023/07/30 01:43:58;;;;;;;4.53;3.92;;;;;;;26.37;51.77;100727.38;21084618;28;20044;-70
2023/07/30 01:53:59;;;;;;;4.55;4.00;;;;;;;26.36;51.46;100734.16;21089812;28;20066;-69
2023/07/30 02:04:01;;;;;;;4.28;3.88;;;;;;;26.47;55.22;100774.00;21080484;28;20048;-69
2023/07/30 02:14:05;;;;;;;4.72;4.22;;;;;;;26.78;55.52;100802.03;21079393;28;20044;-68
2023/07/30 02:24:09;;;;;;;3.80;3.50;;;;;;;27.08;54.95;100845.25;21078906;28;20028;-69
2023/07/30 02:34:11;;;;;;;3.65;3.35;;;;;;;27.26;54.47;100841.38;21077478;28;20048;-69
2023/07/30 02:44:15;;;;;;;3.88;3.42;;;;;;;27.41;54.10;100844.88;21077732;28;20518;-69
2023/07/30 02:54:16;;;;;;;3.45;3.05;;;;;;;27.54;54.01;100835.47;21075652;28;20471;-69
2023/07/30 03:04:20;;;;;;;3.90;3.47;;;;;;;27.70;53.62;100839.44;21076239;28;20036;-70
2023/07/30 03:14:29;;;;;;;3.40;3.10;;;;;;;27.78;53.51;100854.72;21076795;28;20093;-71
2023/07/30 03:24:30;;;;;;;2.72;2.50;;;;;;;27.90;53.31;100877.34;21065246;28;20036;-71
2023/07/30 03:34:32;;;;;;;2.58;2.38;;;;;;;27.98;53.22;100851.22;21074902;28;20040;-69
2023/07/30 03:44:33;;;;;;;2.65;2.45;;;;;;;28.00;52.94;100874.25;21074739;28;20541;-69
2023/07/30 03:54:39;;;;;;;2.67;2.35;;;;;;;28.11;52.84;100895.22;21076115;28;20036;-70
2023/07/30 04:04:40;;;;;;;2.35;2.15;;;;;;;28.19;52.79;100924.53;21077170;28;20101;-70
2023/07/30 04:14:41;;;;;;;2.30;2.10;;;;;;;28.25;52.63;100928.81;21088794;28;20046;-68
2023/07/30 04:24:43;;;;;;;2.63;2.00;;;;;;;28.25;52.40;100917.56;21087871;28;20036;-70
2023/07/30 04:34:45;;;;;;;2.40;2.20;;;;;;;28.33;52.50;100946.88;21086814;28;20048;-68
2023/07/30 04:44:46;;;;;;;2.30;2.10;;;;;;;28.42;52.22;100960.97;21086357;28;20044;-69
2023/07/30 04:54:50;;;;;;;2.45;2.05;;;;;;;28.50;52.07;100993.91;21085236;28;20437;-71
2023/07/30 05:04:52;;;;;;;1.90;1.80;;;;;;;28.51;51.86;101002.03;21084843;28;20036;-71
2023/07/30 05:14:54;;;;;;;2.15;1.83;;;;;;;28.43;51.74;100996.41;21081964;28;20112;-70
2023/07/30 05:24:55;;;;;;;1.80;1.70;;;;;;;28.61;51.81;101020.56;21083350;28;20036;-69
2023/07/30 05:34:56;;;;;;;2.22;2.03;;;;;;;28.63;51.59;101029.50;21083614;28;20328;-69
2023/07/30 05:44:58;;;;;;;1.98;1.77;;;;;;;28.64;51.58;101036.81;21081989;28;20356;-69
2023/07/30 05:54:59;;;;;;;1.75;1.65;;;;;;;28.52;51.58;101039.47;21080704;28;20123;-68
2023/07/30 06:05:02;;;;;;;1.90;1.80;;;;;;;28.71;51.44;101042.75;21079521;28;20040;-69
2023/07/30 06:15:09;;;;;;;1.83;1.70;;;;;;;28.68;51.48;101057.50;21079033;28;20109;-70
2023/07/30 06:25:10;;;;;;;1.65;1.55;;;;;;;28.68;51.28;101054.69;21077536;28;20055;-70
2023/07/30 06:35:12;;;;;;;1.67;1.58;;;;;;;28.64;51.40;101050.91;21078245;28;20048;-69
2023/07/30 06:45:13;;;;;;;1.65;1.52;;;;;;;28.71;51.45;101070.94;21077754;28;20028;-69
2023/07/30 06:55:14;;;;;;;1.63;1.52;;;;;;;28.74;51.02;101050.56;21076321;28;20036;-69
2023/07/30 07:05:16;;;;;;;1.40;1.30;;;;;;;28.75;50.93;101052.22;21076513;28;20043;-69
2023/07/30 07:15:18;;;;;;;1.60;1.50;;;;;;;28.32;50.82;100985.44;21076236;28;20040;-69
2023/07/30 07:25:22;;;;;;;1.60;1.50;;;;;;;28.58;47.88;101055.00;21075507;28;20063;-70
2023/07/30 07:35:26;;;;;;;1.95;1.75;;;;;;;27.72;47.36;101045.22;21074487;28;20040;-70
2023/07/30 07:45:27;;;;;;;1.52;1.42;;;;;;;27.26;46.48;101057.72;21088099;28;20043;-69
2023/07/30 07:55:29;;;;;;;2.70;1.85;;;;;;;27.01;46.04;101075.19;21089040;28;20487;-70
2023/07/30 08:05:30;;;;;;;1.60;1.42;;;;;;;26.80;46.40;101070.09;21089666;28;20110;-69
2023/07/30 08:15:33;;;;;;;1.77;1.65;;;;;;;26.60;45.98;101070.56;21088348;28;20106;-69
2023/07/30 08:25:34;;;;;;;1.42;1.33;;;;;;;26.45;45.48;101080.16;21087618;28;20044;-69
2023/07/30 08:35:35;;;;;;;2.10;1.65;;;;;;;26.83;52.55;101091.88;21086885;28;20479;-70
2023/07/30 08:45:39;;;;;;;1.90;1.60;;;;;;;27.17;52.30;101098.09;21086629;28;20039;-71
2023/07/30 08:55:46;;;;;;;1.85;1.75;;;;;;;27.43;51.86;101117.97;21086325;28;20078;-70
2023/07/30 09:05:48;;;;;;;1.90;1.80;;;;;;;27.63;51.46;101123.06;21083988;28;20040;-69
2023/07/30 09:15:51;;;;;;;2.10;1.90;;;;;;;27.81;51.12;101135.22;21084069;28;20086;-70
2023/07/30 09:25:58;;;;;;;1.80;1.60;;;;;;;27.93;50.85;101157.13;21082965;28;20059;-69
2023/07/30 09:36:03;;;;;;;2.10;1.90;;;;;;;28.03;50.69;101166.09;21082593;28;20032;-70
2023/07/30 09:46:06;;;;;;;1.95;1.83;;;;;;;28.09;50.69;101197.75;21080909;28;20269;-70
2023/07/30 09:56:08;;;;;;;2.05;1.85;;;;;;;28.14;50.64;101220.13;21081581;28;20039;-70
2023/07/30 10:06:12;;;;;;;1.88;1.77;;;;;;;28.11;50.80;101227.22;21079476;28;20073;-70
2023/07/30 10:16:13;;;;;;;1.90;1.80;;;;;;;28.18;50.60;101235.19;21081528;28;20078;-70
2023/07/30 10:26:15;;;;;;;1.67;1.58;;;;;;;28.01;50.65;101244.38;21084575;28;20094;-70
2023/07/30 10:36:32;;;;;;;1.95;1.83;;;;;;;28.19;50.76;101265.00;21077393;28;20059;-69
2023/07/30 10:46:34;;;;;;;2.45;1.92;;;;;;;28.27;50.21;101272.66;21077663;28;20425;-69
2023/07/30 10:56:40;;;;;;;1.83;1.60;;;;;;;28.31;50.46;101292.50;21075869;28;20103;-69
2023/07/30 11:06:51;;;;;;;1.77;1.63;;;;;;;28.20;50.26;101320.09;21075915;28;20052;-68
2023/07/30 11:16:58;;;;;;;1.70;1.60;;;;;;;28.31;50.35;101348.81;21086522;28;20039;-69
2023/07/30 11:27:01;;;;;;;1.90;1.80;;;;;;;28.39;50.14;101367.75;21091662;28;20028;-69
2023/07/30 11:37:11;;;;;;;1.63;1.52;;;;;;;28.39;50.04;101395.91;21092272;28;20808;-69
2023/07/30 11:47:22;;;;;;;2.58;2.20;;;;;;;28.39;50.06;101386.63;21090997;28;20484;-69
2023/07/30 11:57:36;;;;;;;2.83;2.42;;;;;;;28.43;50.09;101413.00;21090780;28;20491;-69
2023/07/30 12:07:43;;;;;;;2.83;2.58;;;;;;;28.39;49.85;101409.16;21089855;28;20403;-70
2023/07/30 12:17:45;;;;;;;3.63;2.58;;;;;;;28.49;50.02;101415.34;21089007;28;20078;-69
2023/07/30 12:27:46;;;;;;;3.40;2.97;;;;;;;28.50;49.76;101424.63;21088225;28;20086;-71
2023/07/30 12:37:48;;;;;;;4.47;3.25;;;;;;;28.43;50.03;101419.44;21088513;28;20028;-70
2023/07/30 12:47:57;;;;;;;4.97;3.40;;;;;;;28.52;49.69;101444.84;21085898;28;20036;-68
2023/07/30 12:57:59;;;;;;;6.38;4.03;;;;;;;28.53;49.94;101435.25;21085363;28;20040;-68
2023/07/30 13:08:01;;;;;;;5.47;3.80;;;;;;;28.56;49.68;101437.44;21084445;28;20044;-69
2023/07/30 13:18:03;;;;;;;6.95;4.30;;;;;;;28.33;49.84;101395.19;21083686;28;20420;-68
2023/07/30 13:28:04;;;;;;;5.60;4.40;;;;;;;28.58;49.76;101437.94;21082314;28;20084;-69
2023/07/30 13:38:06;;;;;;;6.03;4.57;;;;;;;28.60;49.74;101427.19;21080996;28;20044;-69
2023/07/30 13:48:07;;;;;;;6.38;4.40;;;;;;;28.60;49.78;101433.66;21081664;28;20024;-69
2023/07/30 13:58:12;;;;;;;6.88;4.93;;;;;;;28.61;49.73;101437.28;21078995;28;20105;-69
2023/07/30 14:08:15;;;;;;;6.28;4.80;;;;;;;28.55;49.79;101433.78;21078403;28;20044;-68
2023/07/30 14:18:17;;;;;;;6.35;4.57;;;;;;;28.62;49.71;101455.84;21077443;28;20056;-69
2023/07/30 14:28:21;;;;;;;5.93;4.57;;;;;;;28.63;49.73;101449.06;21077654;28;20032;-69
2023/07/30 14:38:22;;;;;;;7.55;4.47;;;;;;;28.51;49.64;101429.13;21058367;28;20069;-68
2023/07/30 14:48:23;;;;;;;7.10;4.90;;;;;;;28.63;49.53;101447.06;21076267;28;20032;-68
2023/07/30 14:58:25;;;;;;;6.53;4.78;;;;;;;28.60;49.71;101444.91;21075090;28;20442;-68
2023/07/30 15:08:26;;;;;;;5.47;4.40;;;;;;;28.66;49.51;101436.31;21075838;28;20044;-68
2023/07/30 15:18:28;;;;;;;6.35;4.75;;;;;;;28.67;49.62;101430.38;21056570;28;20368;-68
2023/07/30 15:28:29;;;;;;;6.03;4.90;;;;;;;28.67;49.47;101424.72;21075272;28;20040;-69
2023/07/30 15:38:31;;;;;;;4.85;4.35;;;;;;;28.67;49.42;101407.00;21056085;28;20044;-69
2023/07/30 15:48:33;;;;;;;6.20;4.40;;;;;;;28.67;49.45;101402.19;21073826;28;20111;-69
2023/07/30 15:58:39;;;;;;;5.25;4.30;;;;;;;28.61;49.69;101386.59;21074178;28;20035;-69
2023/07/30 16:08:40;;;;;;;7.03;4.77;;;;;;;28.65;49.58;101395.25;21089128;28;20036;-69
2023/07/30 16:18:42;;;;;;;5.82;4.53;;;;;;;28.65;47.72;101398.88;21089538;28;20032;-69
2023/07/30 16:28:51;;;;;;;6.65;4.70;;;;;;;27.80;47.11;101379.06;21088103;28;20097;-70
2023/07/30 16:38:52;;;;;;;5.15;4.25;;;;;;;27.50;46.90;101388.19;21087260;28;20040;-69
2023/07/30 16:48:54;;;;;;;6.50;4.45;;;;;;;27.21;46.25;101383.72;21085802;28;20063;-69
2023/07/30 16:59:04;;;;;;;4.90;4.28;;;;;;;26.95;46.66;101380.59;21085442;28;20062;-70
2023/07/30 17:09:12;;;;;;;4.82;4.05;;;;;;;26.84;46.60;101360.28;21085510;28;20036;-68
2023/07/30 17:19:22;;;;;;;5.43;4.10;;;;;;;26.72;46.25;101365.59;21084697;28;20432;-69
2023/07/30 17:29:27;;;;;;;5.43;4.13;;;;;;;26.64;46.67;101369.13;21065850;28;20086;-69
2023/07/30 17:39:29;;;;;;;5.40;4.10;;;;;;;26.54;46.95;101366.50;21054033;28;20051;-69
2023/07/30 17:49:30;;;;;;;4.85;4.10;;;;;;;26.46;46.38;101362.44;21080498;28;20463;-69
2023/07/30 17:59:32;;;;;;;5.10;3.85;;;;;;;26.39;46.71;101349.91;21040578;28;20043;-69
2023/07/30 18:09:34;;;;;;;5.25;3.67;;;;;;;26.32;47.30;101333.50;21023915;28;20093;-69
2023/07/30 18:19:35;;;;;;;7.20;4.47;;;;;;;26.26;46.82;101318.72;21079343;28;20044;-69
2023/07/30 18:29:37;;;;;;;4.97;3.60;;;;;;;26.15;46.88;101322.84;21078088;28;20036;-68
2023/07/30 18:39:44;;;;;;;6.30;4.05;;;;;;;26.18;49.11;101304.56;21077754;28;20035;-69
2023/07/30 18:49:46;;;;;;;4.22;3.13;;;;;;;26.58;52.43;101286.16;21077784;28;20032;-69
2023/07/30 18:59:47;;;;;;;9.07;3.92;;;;;;;26.90;51.73;101275.97;21042030;28;20036;-68
2023/07/30 19:09:49;;;;;;;3.90;3.45;;;;;;;27.17;51.31;101272.28;21003244;28;20033;-68
2023/07/30 19:19:51;;;;;;;5.10;3.72;;;;;;;27.35;50.83;101276.91;21026875;28;20079;-69
2023/07/30 19:29:53;;;;;;;4.72;3.72;;;;;;;27.49;50.54;101279.69;21022731;28;20024;-68
2023/07/30 19:39:55;;;;;;;5.03;3.75;;;;;;;27.61;50.37;101263.09;21070706;28;20036;-70
2023/07/30 19:49:58;;;;;;;4.40;3.38;;;;;;;27.63;50.25;101238.31;21085467;28;20090;-70
2023/07/30 20:00:00;;;;;;;4.65;3.50;;;;;;;27.77;50.48;101250.34;21083805;28;20553;-69
2023/07/30 20:10:01;;;;;;;3.95;3.53;;;;;;;27.63;50.23;101218.63;21086856;28;20032;-68
2023/07/30 20:20:06;;;;;;;4.25;3.50;;;;;;;27.93;50.23;101253.59;21087923;28;20480;-62
2023/07/30 20:30:14;;;;;;;3.50;3.05;;;;;;;28.02;49.95;101256.44;21087423;28;20036;-64
2023/07/30 20:40:15;;;;;;;5.53;3.30;;;;;;;28.10;49.90;101247.22;21087568;28;20564;-64
2023/07/30 20:50:17;;;;;;;11.75;3.72;;;;;;;28.11;49.95;101243.25;21085115;28;20047;-65
2023/07/30 21:00:25;;;;;;;12.13;3.55;;;;;;;28.09;50.07;101228.69;21085698;28;20027;-66
2023/07/30 21:10:27;;;;;;;13.88;3.90;;;;;;;28.19;50.17;101236.84;21035858;28;20040;-66
2023/07/30 21:20:28;;;;;;;19.77;4.32;;;;;;;28.22;50.27;101227.75;20999846;28;20052;-64
2023/07/30 21:30:29;;;;;;;17.23;4.55;;;;;;;28.27;50.11;101236.06;20999974;28;20472;-64
2023/07/30 21:40:31;;;;;;;20.98;5.05;;;;;;;28.26;50.17;101222.31;20998443;28;20157;-64
2023/07/30 21:50:35;;;;;;;23.30;5.60;;;;;;;28.31;50.25;101234.25;20998060;28;20036;-64
2023/07/30 22:00:36;;;;;;;37.15;8.32;;;;;;;28.33;50.62;101250.81;20996783;28;20032;-64
2023/07/30 22:10:44;;;;;;;49.55;9.25;;;;;;;28.39;50.64;101248.72;20997165;28;20162;-65
2023/07/30 22:20:45;;;;;;;48.10;9.38;;;;;;;28.30;50.83;101228.94;20995900;28;20028;-69
2023/07/30 22:30:47;;;;;;;49.65;9.57;;;;;;;28.46;50.79;101238.66;20959693;28;20036;-68
2023/07/30 22:40:48;;;;;;;45.60;8.45;;;;;;;28.41;50.89;101229.50;20919122;28;20175;-67
2023/07/30 22:50:49;;;;;;;47.15;8.95;;;;;;;28.50;50.52;101238.81;20970826;28;20302;-65
2023/07/30 23:00:52;;;;;;;32.28;9.30;;;;;;;28.52;50.70;101247.78;20958329;28;20173;-66
2023/07/30 23:10:54;;;;;;;26.60;7.22;;;;;;;28.51;50.89;101257.38;21026664;28;20448;-66
2023/07/30 23:20:55;;;;;;;28.08;7.72;;;;;;;28.53;50.54;101260.69;21014073;28;20410;-70
2023/07/30 23:30:57;;;;;;;30.58;6.90;;;;;;;28.54;50.69;101273.59;21065951;28;20041;-73
2023/07/30 23:40:59;;;;;;;20.60;6.43;;;;;;;28.53;50.92;101284.03;21058795;28;20040;-69
2023/07/30 23:51:01;;;;;;;18.38;5.93;;;;;;;28.52;50.82;101275.94;21073655;28;20032;-66
